createdAt,value
2022-10-24T00:00:56.392Z,15.59
2022-10-24T00:01:56.373Z,15.57
2022-10-24T00:02:56.471Z,15.59
2022-10-24T00:03:56.418Z,15.62
2022-10-24T00:04:56.344Z,15.59
2022-10-24T00:05:56.362Z,15.59
2022-10-24T00:06:56.318Z,15.56
2022-10-24T00:07:56.346Z,15.64
2022-10-24T00:08:56.301Z,15.53
2022-10-24T00:09:56.288Z,15.59
2022-10-24T00:10:56.290Z,15.57
2022-10-24T00:11:56.269Z,15.62
2022-10-24T00:12:56.279Z,15.54
2022-10-24T00:13:56.288Z,15.60
2022-10-24T00:14:56.223Z,15.62
2022-10-24T00:15:56.207Z,15.64
2022-10-24T00:16:56.205Z,15.60
2022-10-24T00:17:56.186Z,15.67
2022-10-24T00:18:56.197Z,15.65
2022-10-24T00:19:56.201Z,15.59
2022-10-24T00:20:56.157Z,15.65
2022-10-24T00:21:56.155Z,15.67
2022-10-24T00:22:56.134Z,15.72
2022-10-24T00:23:56.144Z,15.71
2022-10-24T00:24:56.120Z,15.80
2022-10-24T00:25:56.102Z,15.62
2022-10-24T00:26:56.079Z,15.57
2022-10-24T00:27:56.079Z,15.65
2022-10-24T00:28:56.088Z,15.54
2022-10-24T00:29:56.099Z,15.65
2022-10-24T00:30:56.061Z,15.68
2022-10-24T00:31:56.047Z,15.64
2022-10-24T00:32:56.016Z,15.56
2022-10-24T00:33:56.012Z,15.56
2022-10-24T00:34:55.993Z,15.54
2022-10-24T00:35:56.008Z,15.60
2022-10-24T00:36:55.996Z,15.67
2022-10-24T00:37:55.984Z,15.51
2022-10-24T00:38:55.954Z,15.64
2022-10-24T00:39:55.949Z,15.62
2022-10-24T00:40:55.950Z,15.62
2022-10-24T00:41:55.961Z,15.62
2022-10-24T00:42:55.909Z,15.60
2022-10-24T00:43:55.897Z,15.57
2022-10-24T00:44:55.884Z,15.62
2022-10-24T00:45:55.895Z,15.62
2022-10-24T00:46:55.860Z,15.67
2022-10-24T00:47:55.866Z,15.76
2022-10-24T00:48:55.835Z,15.72
2022-10-24T00:49:55.841Z,15.78
2022-10-24T00:50:55.824Z,15.67
2022-10-24T00:51:55.820Z,15.74
2022-10-24T00:52:55.801Z,15.83
2022-10-24T00:53:55.800Z,15.82
2022-10-24T00:54:55.758Z,15.78
2022-10-24T00:55:55.754Z,15.87
2022-10-24T00:56:55.757Z,15.93
2022-10-24T00:57:55.729Z,15.82
2022-10-24T00:58:55.714Z,15.90
2022-10-24T00:59:55.721Z,15.87
2022-10-24T01:00:55.731Z,15.96
2022-10-24T01:01:55.686Z,16.02
2022-10-24T01:02:55.691Z,16.02
2022-10-24T01:03:55.661Z,16.08
2022-10-24T01:04:55.666Z,16.07
2022-10-24T01:05:55.634Z,16.12
2022-10-24T01:06:55.642Z,16.08
2022-10-24T01:07:55.606Z,16.08
2022-10-24T01:08:55.604Z,16.11
2022-10-24T01:09:55.604Z,16.15
2022-10-24T01:10:55.615Z,16.04
2022-10-24T01:11:55.586Z,16.11
2022-10-24T01:12:55.570Z,16.08
2022-10-24T01:13:55.582Z,16.04
2022-10-24T01:14:55.525Z,15.96
2022-10-24T01:15:55.519Z,16.05
2022-10-24T01:16:55.536Z,15.97
2022-10-24T01:17:55.514Z,15.90
2022-10-24T01:18:55.495Z,15.93
2022-10-24T01:19:55.511Z,15.90
2022-10-24T01:20:55.455Z,15.84
2022-10-24T01:21:55.505Z,15.83
2022-10-24T01:22:55.470Z,15.74
2022-10-24T01:23:55.431Z,15.62
2022-10-24T01:24:55.418Z,15.69
2022-10-24T01:25:55.415Z,15.71
2022-10-24T01:26:55.450Z,15.62
2022-10-24T01:27:55.391Z,15.62
2022-10-24T01:28:55.399Z,15.62
2022-10-24T01:29:55.379Z,15.51
2022-10-24T01:30:55.356Z,15.54
2022-10-24T01:31:55.340Z,15.51
2022-10-24T01:33:03.341Z,15.43
2022-10-24T01:33:55.465Z,15.49
2022-10-24T01:34:55.455Z,15.53
2022-10-24T01:35:55.579Z,15.51
2022-10-24T01:36:55.417Z,15.49
2022-10-24T01:37:55.517Z,15.51
2022-10-24T01:38:55.429Z,15.43
2022-10-24T01:39:55.380Z,15.44
2022-10-24T01:40:55.340Z,15.39
2022-10-24T01:41:55.254Z,15.43
2022-10-24T01:42:55.276Z,15.46
2022-10-24T01:43:55.231Z,15.38
2022-10-24T01:44:55.244Z,15.35
2022-10-24T01:45:55.211Z,15.41
2022-10-24T01:46:55.223Z,15.35
2022-10-24T01:47:55.184Z,15.31
2022-10-24T01:48:55.155Z,15.32
2022-10-24T01:49:55.142Z,15.38
2022-10-24T01:50:55.185Z,15.31
2022-10-24T01:51:55.124Z,15.29
2022-10-24T01:52:55.125Z,15.32
2022-10-24T01:53:55.121Z,15.31
2022-10-24T01:54:55.079Z,15.20
2022-10-24T01:55:55.070Z,15.19
2022-10-24T01:56:55.054Z,15.21
2022-10-24T01:57:55.077Z,15.19
2022-10-24T01:58:55.058Z,15.11
2022-10-24T01:59:55.080Z,15.13
2022-10-24T02:00:55.075Z,15.10
2022-10-24T02:01:55.051Z,15.14
2022-10-24T02:02:55.017Z,15.01
2022-10-24T02:03:55.005Z,15.01
2022-10-24T02:04:54.987Z,14.99
2022-10-24T02:05:54.980Z,14.96
2022-10-24T02:06:54.992Z,14.99
2022-10-24T02:07:54.960Z,14.92
2022-10-24T02:08:55.012Z,14.92
2022-10-24T02:09:54.927Z,14.86
2022-10-24T02:10:54.937Z,14.80
2022-10-24T02:11:54.917Z,14.88
2022-10-24T02:12:54.911Z,14.77
2022-10-24T02:13:54.881Z,14.64
2022-10-24T02:14:54.880Z,14.69
2022-10-24T02:15:54.884Z,14.64
2022-10-24T02:16:54.839Z,14.61
2022-10-24T02:17:54.875Z,14.64
2022-10-24T02:18:54.817Z,14.57
2022-10-24T02:19:54.813Z,14.55
2022-10-24T02:20:54.817Z,14.40
2022-10-24T02:21:54.778Z,14.40
2022-10-24T02:22:54.767Z,14.45
2022-10-24T02:23:54.848Z,14.42
2022-10-24T02:24:54.746Z,14.37
2022-10-24T02:25:57.486Z,14.27
2022-10-24T02:26:54.747Z,14.32
2022-10-24T02:27:54.718Z,14.32
2022-10-24T02:28:54.710Z,14.36
2022-10-24T02:29:54.698Z,14.22
2022-10-24T02:30:54.734Z,14.18
2022-10-24T02:31:54.677Z,14.12
2022-10-24T02:32:54.676Z,14.17
2022-10-24T02:33:54.651Z,14.14
2022-10-24T02:34:54.654Z,14.09
2022-10-24T02:35:54.713Z,14.15
2022-10-24T02:36:54.637Z,14.10
2022-10-24T02:37:54.607Z,14.03
2022-10-24T02:38:54.608Z,14.14
2022-10-24T02:39:54.592Z,14.07
2022-10-24T02:40:54.555Z,14.15
2022-10-24T02:41:54.603Z,14.14
2022-10-24T02:42:54.586Z,14.10
2022-10-24T02:43:54.562Z,14.12
2022-10-24T02:44:54.550Z,14.17
2022-10-24T02:45:54.551Z,14.20
2022-10-24T02:46:54.518Z,14.15
2022-10-24T02:47:54.480Z,14.21
2022-10-24T02:48:54.530Z,14.17
2022-10-24T02:49:54.490Z,14.14
2022-10-24T02:50:54.457Z,14.07
2022-10-24T02:51:54.979Z,14.12
2022-10-24T02:52:54.458Z,14.09
2022-10-24T02:53:54.446Z,14.09
2022-10-24T02:54:54.418Z,14.14
2022-10-24T02:55:54.429Z,14.10
2022-10-24T02:56:54.437Z,14.14
2022-10-24T02:57:54.429Z,14.10
2022-10-24T02:58:54.388Z,14.03
2022-10-24T02:59:54.386Z,14.10
2022-10-24T03:00:54.380Z,14.10
2022-10-24T03:01:54.456Z,14.10
2022-10-24T03:02:54.333Z,14.06
2022-10-24T03:03:54.331Z,14.00
2022-10-24T03:04:54.309Z,14.06
2022-10-24T03:05:54.299Z,14.07
2022-10-24T03:06:54.327Z,14.10
2022-10-24T03:07:54.275Z,14.14
2022-10-24T03:08:54.319Z,14.10
2022-10-24T03:09:54.308Z,14.04
2022-10-24T03:10:54.230Z,14.17
2022-10-24T03:11:54.271Z,14.14
2022-10-24T03:12:54.240Z,14.09
2022-10-24T03:13:54.202Z,14.12
2022-10-24T03:14:54.249Z,14.09
2022-10-24T03:15:54.198Z,14.06
2022-10-24T03:16:54.191Z,14.06
2022-10-24T03:17:54.198Z,14.06
2022-10-24T03:18:54.168Z,14.03
2022-10-24T03:19:54.141Z,13.97
2022-10-24T03:20:54.131Z,14.00
2022-10-24T03:21:54.156Z,13.95
2022-10-24T03:22:54.166Z,14.00
2022-10-24T03:23:54.141Z,13.84
2022-10-24T03:24:55.580Z,13.89
2022-10-24T03:25:54.185Z,13.84
2022-10-24T03:26:54.085Z,13.85
2022-10-24T03:27:54.045Z,13.87
2022-10-24T03:28:54.050Z,13.82
2022-10-24T03:29:54.046Z,13.84
2022-10-24T03:30:54.029Z,13.82
2022-10-24T03:31:54.004Z,13.85
2022-10-24T03:32:53.994Z,13.84
2022-10-24T03:33:54.060Z,13.82
2022-10-24T03:34:53.984Z,13.69
2022-10-24T03:35:54.116Z,13.78
2022-10-24T03:36:53.959Z,13.78
2022-10-24T03:37:53.954Z,13.67
2022-10-24T03:38:53.954Z,13.84
2022-10-24T03:39:53.933Z,13.77
2022-10-24T03:40:54.077Z,13.78
2022-10-24T03:41:53.925Z,13.79
2022-10-24T03:42:53.931Z,13.78
2022-10-24T03:43:53.884Z,13.79
2022-10-24T03:44:53.871Z,13.81
2022-10-24T03:45:53.862Z,13.78
2022-10-24T03:46:53.865Z,13.82
2022-10-24T03:47:53.867Z,13.75
2022-10-24T03:48:53.859Z,13.79
2022-10-24T03:49:53.811Z,13.71
2022-10-24T03:50:53.843Z,13.78
2022-10-24T03:51:53.854Z,13.75
2022-10-24T03:52:53.786Z,13.73
2022-10-24T03:53:53.797Z,13.82
2022-10-24T03:54:53.829Z,13.70
2022-10-24T03:55:53.735Z,13.77
2022-10-24T03:56:53.772Z,13.69
2022-10-24T03:57:53.735Z,13.77
2022-10-24T03:58:53.757Z,13.82
2022-10-24T03:59:53.714Z,13.77
2022-10-24T04:00:53.793Z,13.75
2022-10-24T04:01:53.728Z,13.89
2022-10-24T04:02:53.722Z,13.82
2022-10-24T04:03:53.673Z,13.67
2022-10-24T04:04:53.628Z,13.64
2022-10-24T04:05:53.629Z,13.73
2022-10-24T04:06:53.829Z,13.75
2022-10-24T04:07:53.623Z,13.78
2022-10-24T04:08:53.599Z,13.82
2022-10-24T04:09:53.615Z,13.81
2022-10-24T04:10:56.283Z,13.79
2022-10-24T04:11:53.571Z,13.85
2022-10-24T04:12:53.548Z,13.85
2022-10-24T04:13:53.612Z,13.82
2022-10-24T04:14:53.520Z,13.78
2022-10-24T04:15:53.551Z,13.77
2022-10-24T04:16:53.539Z,13.79
2022-10-24T04:17:53.537Z,13.77
2022-10-24T04:18:53.510Z,13.69
2022-10-24T04:19:53.467Z,13.77
2022-10-24T04:20:53.471Z,13.63
2022-10-24T04:21:53.454Z,13.69
2022-10-24T04:22:53.455Z,13.69
2022-10-24T04:23:53.433Z,13.67
2022-10-24T04:24:53.414Z,13.69
2022-10-24T04:25:53.400Z,13.64
2022-10-24T04:26:53.403Z,13.69
2022-10-24T04:27:53.459Z,13.71
2022-10-24T04:28:53.369Z,13.73
2022-10-24T04:29:53.397Z,13.66
2022-10-24T04:30:53.368Z,13.71
2022-10-24T04:31:53.365Z,13.70
2022-10-24T04:32:53.346Z,13.64
2022-10-24T04:33:53.322Z,13.64
2022-10-24T04:34:53.301Z,13.70
2022-10-24T04:35:53.308Z,13.69
2022-10-24T04:36:53.305Z,13.67
2022-10-24T04:37:53.298Z,13.67
2022-10-24T04:38:53.312Z,13.64
2022-10-24T04:39:53.301Z,13.59
2022-10-24T04:40:53.269Z,13.71
2022-10-24T04:41:53.226Z,13.55
2022-10-24T04:42:53.213Z,13.64
2022-10-24T04:43:53.214Z,13.60
2022-10-24T04:44:53.200Z,13.54
2022-10-24T04:45:53.172Z,13.57
2022-10-24T04:46:53.157Z,13.52
2022-10-24T04:47:53.170Z,13.51
2022-10-24T04:48:53.181Z,13.52
2022-10-24T04:49:53.161Z,13.54
2022-10-24T04:50:53.121Z,13.52
2022-10-24T04:51:53.113Z,13.52
2022-10-24T04:52:53.098Z,13.55
2022-10-24T04:53:53.121Z,13.63
2022-10-24T04:54:53.092Z,13.57
2022-10-24T04:55:53.059Z,13.55
2022-10-24T04:56:53.055Z,13.67
2022-10-24T04:57:53.060Z,13.62
2022-10-24T04:58:53.173Z,13.70
2022-10-24T04:59:53.009Z,13.67
2022-10-24T05:00:53.026Z,13.75
2022-10-24T05:01:53.090Z,13.79
2022-10-24T05:02:55.444Z,13.79
2022-10-24T05:03:54.014Z,13.88
2022-10-24T05:04:52.958Z,13.81
2022-10-24T05:05:52.954Z,13.91
2022-10-24T05:06:52.974Z,13.70
2022-10-24T05:07:52.996Z,13.82
2022-10-24T05:08:52.943Z,13.81
2022-10-24T05:09:52.921Z,13.79
2022-10-24T05:10:52.894Z,13.79
2022-10-24T05:11:52.925Z,13.78
2022-10-24T05:12:52.912Z,13.81
2022-10-24T05:13:52.879Z,13.71
2022-10-24T05:14:52.868Z,13.81
2022-10-24T05:15:52.860Z,13.79
2022-10-24T05:16:52.829Z,13.75
2022-10-24T05:17:52.834Z,13.73
2022-10-24T05:18:52.803Z,13.64
2022-10-24T05:19:52.790Z,13.70
2022-10-24T05:20:52.800Z,13.64
2022-10-24T05:21:52.775Z,13.67
2022-10-24T05:22:52.802Z,13.67
2022-10-24T05:23:52.787Z,13.70
2022-10-24T05:24:52.742Z,13.70
2022-10-24T05:25:52.761Z,13.64
2022-10-24T05:26:52.724Z,13.62
2022-10-24T05:27:52.744Z,13.59
2022-10-24T05:28:52.835Z,13.66
2022-10-24T05:29:52.718Z,13.60
2022-10-24T05:30:52.671Z,13.60
2022-10-24T05:31:52.698Z,13.69
2022-10-24T05:32:52.646Z,13.55
2022-10-24T05:33:52.681Z,13.49
2022-10-24T05:34:52.681Z,13.54
2022-10-24T05:35:52.652Z,13.54
2022-10-24T05:36:52.619Z,13.55
2022-10-24T05:37:52.616Z,13.49
2022-10-24T05:38:52.603Z,13.55
2022-10-24T05:39:52.566Z,13.46
2022-10-24T05:40:52.571Z,13.52
2022-10-24T05:41:55.305Z,13.55
2022-10-24T05:42:52.556Z,13.55
2022-10-24T05:43:52.519Z,13.54
2022-10-24T05:44:52.503Z,13.51
2022-10-24T05:45:52.575Z,13.52
2022-10-24T05:46:52.488Z,13.57
2022-10-24T05:47:54.054Z,13.51
2022-10-24T05:48:52.456Z,13.55
2022-10-24T05:49:52.485Z,13.54
2022-10-24T05:50:52.447Z,13.57
2022-10-24T05:51:52.434Z,13.55
2022-10-24T05:52:52.442Z,13.51
2022-10-24T05:53:52.511Z,13.52
2022-10-24T05:55:06.363Z,13.57
2022-10-24T05:55:53.393Z,13.59
2022-10-24T05:56:52.397Z,13.55
2022-10-24T05:57:52.399Z,13.62
2022-10-24T05:58:52.347Z,13.49
2022-10-24T05:59:52.348Z,13.46
2022-10-24T06:00:54.012Z,13.51
2022-10-24T06:01:52.541Z,13.44
2022-10-24T06:02:52.330Z,13.55
2022-10-24T06:03:52.369Z,13.52
2022-10-24T06:04:52.300Z,13.52
2022-10-24T06:05:52.278Z,13.51
2022-10-24T06:06:52.257Z,13.49
2022-10-24T06:07:52.347Z,13.63
2022-10-24T06:08:52.231Z,13.49
2022-10-24T06:09:52.218Z,13.52
2022-10-24T06:10:52.209Z,13.55
2022-10-24T06:11:52.249Z,13.62
2022-10-24T06:12:52.232Z,13.54
2022-10-24T06:13:52.227Z,13.67
2022-10-24T06:14:52.195Z,13.70
2022-10-24T06:15:52.159Z,13.66
2022-10-24T06:16:52.144Z,13.63
2022-10-24T06:17:52.156Z,13.71
2022-10-24T06:18:52.133Z,13.63
2022-10-24T06:19:52.146Z,13.67
2022-10-24T06:20:54.154Z,13.70
2022-10-24T06:21:52.088Z,13.77
2022-10-24T06:22:52.080Z,13.71
2022-10-24T06:23:52.069Z,13.75
2022-10-24T06:24:52.070Z,13.78
2022-10-24T06:25:52.099Z,13.87
2022-10-24T06:26:52.044Z,13.82
2022-10-24T06:27:52.029Z,13.71
2022-10-24T06:28:52.044Z,13.81
2022-10-24T06:29:52.031Z,13.81
2022-10-24T06:30:52.006Z,13.78
2022-10-24T06:31:52.004Z,13.75
2022-10-24T06:32:52.202Z,13.89
2022-10-24T06:33:52.003Z,13.84
2022-10-24T06:34:51.969Z,13.87
2022-10-24T06:35:51.951Z,13.84
2022-10-24T06:36:51.945Z,13.92
2022-10-24T06:37:52.126Z,13.89
2022-10-24T06:38:51.940Z,13.88
2022-10-24T06:39:51.905Z,13.95
2022-10-24T06:40:51.897Z,13.92
2022-10-24T06:41:51.896Z,13.95
2022-10-24T06:42:51.872Z,13.95
2022-10-24T06:43:51.884Z,13.99
2022-10-24T06:44:51.877Z,13.95
2022-10-24T06:45:51.849Z,14.04
2022-10-24T06:46:51.817Z,14.03
2022-10-24T06:47:54.093Z,14.10
2022-10-24T06:48:51.823Z,14.02
2022-10-24T06:49:51.775Z,14.04
2022-10-24T06:50:51.775Z,14.10
2022-10-24T06:51:51.825Z,13.97
2022-10-24T06:52:51.794Z,14.04
2022-10-24T06:53:51.746Z,14.07
2022-10-24T06:54:51.739Z,14.06
2022-10-24T06:55:51.758Z,14.12
2022-10-24T06:56:51.712Z,14.14
2022-10-24T06:57:51.733Z,14.09
2022-10-24T06:58:51.688Z,14.10
2022-10-24T06:59:51.677Z,14.14
2022-10-24T07:00:51.744Z,14.10
2022-10-24T07:01:51.934Z,14.24
2022-10-24T07:02:51.652Z,14.18
2022-10-24T07:03:51.670Z,14.22
2022-10-24T07:04:51.633Z,14.27
2022-10-24T07:05:51.627Z,14.36
2022-10-24T07:06:51.641Z,14.24
2022-10-24T07:07:51.587Z,14.32
2022-10-24T07:08:51.573Z,14.29
2022-10-24T07:09:51.707Z,14.37
2022-10-24T07:10:51.558Z,14.27
2022-10-24T07:11:51.563Z,14.39
2022-10-24T07:12:51.528Z,14.42
2022-10-24T07:13:53.277Z,14.40
2022-10-24T07:14:51.541Z,14.47
2022-10-24T07:15:51.505Z,14.40
2022-10-24T07:16:51.549Z,14.52
2022-10-24T07:17:51.484Z,14.50
2022-10-24T07:18:51.497Z,14.55
2022-10-24T07:19:51.462Z,14.50
2022-10-24T07:20:51.515Z,14.50
2022-10-24T07:21:51.462Z,14.58
2022-10-24T07:22:51.424Z,14.60
2022-10-24T07:23:51.440Z,14.54
2022-10-24T07:24:51.393Z,14.60
2022-10-24T07:25:51.384Z,14.69
2022-10-24T07:26:51.419Z,14.69
2022-10-24T07:27:51.371Z,14.65
2022-10-24T07:28:51.382Z,14.70
2022-10-24T07:29:51.374Z,14.75
2022-10-24T07:30:51.333Z,14.73
2022-10-24T07:31:51.357Z,14.80
2022-10-24T07:32:51.308Z,14.81
2022-10-24T07:33:58.661Z,14.80
2022-10-24T07:34:51.278Z,14.83
2022-10-24T07:35:51.277Z,14.81
2022-10-24T07:36:51.275Z,14.84
2022-10-24T07:37:51.247Z,14.91
2022-10-24T07:38:51.268Z,14.98
2022-10-24T07:39:51.224Z,15.02
2022-10-24T07:40:51.464Z,15.01
2022-10-24T07:41:51.210Z,14.96
2022-10-24T07:42:51.191Z,15.11
2022-10-24T07:43:51.180Z,15.10
2022-10-24T07:44:51.199Z,15.17
2022-10-24T07:45:52.046Z,15.20
2022-10-24T07:46:51.151Z,15.17
2022-10-24T07:47:58.638Z,15.21
2022-10-24T07:48:51.451Z,15.29
2022-10-24T07:49:51.464Z,15.31
